createdAt,value
2023-07-26T00:01:50.006Z,0.20
2023-07-26T00:04:17.114Z,0.30
2023-07-26T00:06:44.062Z,0.30
2023-07-26T00:09:11.120Z,0.30
2023-07-26T00:11:38.406Z,0.40
2023-07-26T00:14:06.161Z,0.47
2023-07-26T00:16:34.866Z,0.20
2023-07-26T00:19:02.444Z,0.30
2023-07-26T00:21:29.984Z,0.20
2023-07-26T00:26:23.707Z,0.20
2023-07-26T00:28:50.739Z,0.30
2023-07-26T00:31:17.499Z,0.32
2023-07-26T00:33:44.323Z,0.35
2023-07-26T00:36:11.222Z,0.30
2023-07-26T00:38:37.889Z,0.30
2023-07-26T00:41:08.097Z,0.30
2023-07-26T00:43:36.272Z,0.30
2023-07-26T00:46:04.890Z,0.28
2023-07-26T00:48:32.821Z,0.30
2023-07-26T00:51:01.555Z,0.30
2023-07-26T00:53:29.147Z,0.13
2023-07-26T00:55:56.502Z,0.30
2023-07-26T00:58:23.404Z,0.30
2023-07-26T01:00:51.920Z,0.20
2023-07-26T01:03:18.702Z,0.20
2023-07-26T01:06:07.970Z,0.30
2023-07-26T01:08:48.505Z,0.20
2023-07-26T01:11:28.908Z,0.10
2023-07-26T01:13:58.521Z,0.20
2023-07-26T01:16:25.781Z,0.25
2023-07-26T01:18:52.385Z,0.30
2023-07-26T01:21:18.952Z,0.20
2023-07-26T01:23:45.631Z,0.30
2023-07-26T01:26:12.203Z,0.20
2023-07-26T01:28:38.741Z,0.20
2023-07-26T01:31:07.442Z,0.30
2023-07-26T01:33:35.895Z,0.40
2023-07-26T01:36:03.700Z,0.20
2023-07-26T01:38:31.331Z,0.20
2023-07-26T01:40:59.319Z,0.30
2023-07-26T01:43:26.111Z,0.28
2023-07-26T01:45:52.676Z,0.20
2023-07-26T01:48:19.236Z,0.30
2023-07-26T01:50:45.773Z,0.30
2023-07-26T01:53:12.311Z,0.28
2023-07-26T01:55:38.914Z,0.20
2023-07-26T01:58:05.439Z,0.20
2023-07-26T02:00:32.057Z,0.20
2023-07-26T02:02:58.678Z,0.65
2023-07-26T02:05:25.491Z,0.30
2023-07-26T02:07:52.055Z,0.30
2023-07-26T02:10:18.654Z,0.30
2023-07-26T02:12:45.229Z,0.45
2023-07-26T02:15:11.772Z,0.30
2023-07-26T02:17:38.325Z,0.32
2023-07-26T02:20:05.858Z,0.30
2023-07-26T02:24:59.020Z,0.22
2023-07-26T02:27:25.660Z,0.20
2023-07-26T02:29:52.178Z,0.20
2023-07-26T02:32:18.702Z,0.38
2023-07-26T02:34:45.222Z,0.13
2023-07-26T02:37:11.766Z,0.30
2023-07-26T02:39:38.284Z,0.20
2023-07-26T02:42:05.216Z,0.20
2023-07-26T02:44:31.745Z,0.30
2023-07-26T02:46:58.328Z,0.10
2023-07-26T02:49:24.890Z,0.17
2023-07-26T02:51:51.421Z,0.20
2023-07-26T02:54:17.979Z,0.30
2023-07-26T02:56:44.505Z,0.30
2023-07-26T02:59:11.064Z,0.30
2023-07-26T03:01:37.608Z,0.20
2023-07-26T03:04:04.384Z,0.20
2023-07-26T03:06:30.957Z,0.30
2023-07-26T03:08:57.531Z,0.22
2023-07-26T03:11:24.167Z,0.30
2023-07-26T03:13:50.749Z,0.25
2023-07-26T03:16:18.123Z,0.20
2023-07-26T03:18:45.121Z,0.22
2023-07-26T03:21:11.648Z,0.13
2023-07-26T03:23:38.683Z,0.30
2023-07-26T03:26:05.241Z,0.20
2023-07-26T03:28:32.137Z,0.28
2023-07-26T03:30:58.717Z,0.10
2023-07-26T03:33:26.117Z,0.10
2023-07-26T03:35:53.423Z,0.20
2023-07-26T03:38:19.994Z,0.30
2023-07-26T03:40:46.573Z,0.20
2023-07-26T03:43:13.123Z,0.20
2023-07-26T03:45:40.006Z,0.20
2023-07-26T03:48:06.793Z,0.50
2023-07-26T03:50:34.497Z,0.30
2023-07-26T03:53:01.055Z,0.20
2023-07-26T03:55:27.574Z,0.30
2023-07-26T03:57:54.335Z,0.15
2023-07-26T04:00:20.997Z,0.20
2023-07-26T04:02:47.635Z,0.20
2023-07-26T04:05:14.252Z,0.30
2023-07-26T04:07:41.182Z,0.10
2023-07-26T04:10:08.165Z,0.30
2023-07-26T04:12:34.756Z,0.38
2023-07-26T04:15:01.294Z,0.45
2023-07-26T04:17:27.897Z,0.10
2023-07-26T04:19:54.446Z,0.10
2023-07-26T04:22:21.027Z,0.30
2023-07-26T04:24:47.676Z,0.10
2023-07-26T04:27:14.467Z,0.22
2023-07-26T04:29:43.757Z,0.50
2023-07-26T04:32:10.583Z,0.17
2023-07-26T04:34:37.362Z,0.60
2023-07-26T04:37:04.146Z,0.10
2023-07-26T04:39:30.723Z,0.10
2023-07-26T04:41:57.250Z,0.20
2023-07-26T04:44:23.788Z,0.00
2023-07-26T04:46:50.392Z,0.30
2023-07-26T04:49:16.949Z,0.10
2023-07-26T04:51:43.471Z,0.10
2023-07-26T04:54:10.026Z,0.03
2023-07-26T04:56:36.755Z,0.10
2023-07-26T04:59:03.358Z,0.00
2023-07-26T05:01:30.084Z,0.03
2023-07-26T05:03:56.828Z,0.35
2023-07-26T05:06:25.477Z,2.30
2023-07-26T05:08:53.142Z,2.30
2023-07-26T05:11:24.152Z,1.90
2023-07-26T05:13:51.160Z,1.08
2023-07-26T05:16:17.994Z,1.35
2023-07-26T05:18:44.609Z,1.52
2023-07-26T05:21:11.155Z,1.67
2023-07-26T05:23:37.683Z,1.70
2023-07-26T05:26:04.206Z,0.80
2023-07-26T05:28:30.773Z,1.30
2023-07-26T05:30:58.169Z,1.20
2023-07-26T05:35:51.478Z,1.10
2023-07-26T05:38:18.072Z,1.17
2023-07-26T05:40:44.621Z,1.00
2023-07-26T05:43:11.210Z,0.95
2023-07-26T05:45:39.272Z,0.35
2023-07-26T05:48:06.156Z,0.65
2023-07-26T05:50:32.816Z,0.50
2023-07-26T05:52:59.326Z,0.10
2023-07-26T05:55:25.858Z,0.40
2023-07-26T05:57:52.402Z,0.50
2023-07-26T06:00:20.273Z,0.50
2023-07-26T06:02:46.969Z,0.73
2023-07-26T06:05:13.561Z,0.40
2023-07-26T06:07:40.125Z,0.50
2023-07-26T06:10:06.906Z,0.40
2023-07-26T06:12:33.910Z,0.32
2023-07-26T06:15:00.539Z,0.98
2023-07-26T06:17:27.213Z,0.50
2023-07-26T06:19:54.238Z,0.40
2023-07-26T06:22:20.804Z,0.38
2023-07-26T06:24:47.436Z,0.50
2023-07-26T06:27:13.984Z,0.40
2023-07-26T06:29:40.604Z,0.30
2023-07-26T06:32:07.595Z,0.20
2023-07-26T06:34:34.153Z,0.35
2023-07-26T06:37:00.734Z,0.22
2023-07-26T06:39:28.302Z,0.20
2023-07-26T06:41:55.223Z,0.20
2023-07-26T06:44:21.749Z,0.10
2023-07-26T06:46:48.414Z,0.20
2023-07-26T06:49:15.099Z,0.20
2023-07-26T06:51:41.632Z,0.10
2023-07-26T06:54:08.193Z,0.10
2023-07-26T06:56:34.846Z,0.10
2023-07-26T06:59:02.527Z,0.00
2023-07-26T07:01:29.348Z,0.10
2023-07-26T07:04:11.096Z,0.20
2023-07-26T07:06:38.539Z,0.20
2023-07-26T07:09:05.535Z,0.30
2023-07-26T07:11:32.412Z,0.20
2023-07-26T07:13:59.387Z,0.13
2023-07-26T07:16:26.018Z,0.30
2023-07-26T07:18:52.710Z,0.30
2023-07-26T07:21:19.429Z,0.15
2023-07-26T07:23:46.035Z,0.20
2023-07-26T07:26:12.946Z,0.10
2023-07-26T07:28:39.507Z,0.20
2023-07-26T07:31:07.464Z,0.15
2023-07-26T07:33:34.052Z,0.10
2023-07-26T07:36:00.843Z,0.10
2023-07-26T07:38:27.529Z,0.10
2023-07-26T07:40:54.066Z,0.20
2023-07-26T07:43:20.640Z,0.10
2023-07-26T07:45:47.216Z,0.25
2023-07-26T07:48:13.828Z,0.10
2023-07-26T07:50:40.401Z,0.20
2023-07-26T07:53:06.993Z,0.10
2023-07-26T07:55:35.900Z,0.20
2023-07-26T07:58:02.873Z,0.10
2023-07-26T08:00:29.476Z,0.10
2023-07-26T08:02:56.289Z,0.10
2023-07-26T08:05:22.938Z,0.10
2023-07-26T08:07:52.090Z,0.20
2023-07-26T08:10:18.929Z,0.10
2023-07-26T08:12:45.909Z,0.20
2023-07-26T08:15:12.806Z,0.10
2023-07-26T08:17:41.007Z,0.10
2023-07-26T08:20:08.356Z,0.20
2023-07-26T08:22:35.406Z,0.10
2023-07-26T08:27:29.740Z,0.10
2023-07-26T08:29:56.405Z,0.10
2023-07-26T08:32:23.493Z,0.20
2023-07-26T08:34:50.039Z,0.10
2023-07-26T08:37:16.587Z,0.17
2023-07-26T08:39:43.128Z,0.25
2023-07-26T08:42:09.887Z,0.10
2023-07-26T08:44:38.129Z,0.10
2023-07-26T08:47:05.913Z,0.25
2023-07-26T08:49:33.091Z,0.20
2023-07-26T08:52:03.354Z,0.20
2023-07-26T08:54:31.816Z,0.25
2023-07-26T08:56:58.394Z,0.22
2023-07-26T08:59:25.657Z,0.20
2023-07-26T09:02:02.729Z,0.20
2023-07-26T09:04:32.144Z,0.32
2023-07-26T09:07:05.394Z,0.20
2023-07-26T09:09:34.050Z,0.10
2023-07-26T09:12:01.031Z,0.30
2023-07-26T09:14:32.659Z,0.40
2023-07-26T09:17:04.863Z,0.20
2023-07-26T09:19:36.711Z,0.20
2023-07-26T09:22:05.916Z,0.38
2023-07-26T09:24:35.884Z,0.40
2023-07-26T09:27:11.416Z,0.20
2023-07-26T09:29:40.341Z,0.30
2023-07-26T09:32:08.557Z,0.20
2023-07-26T09:34:35.208Z,0.30
2023-07-26T09:37:01.870Z,0.38
2023-07-26T09:39:30.259Z,0.30
2023-07-26T09:42:09.694Z,0.15
2023-07-26T09:44:37.603Z,0.30
2023-07-26T09:47:05.392Z,0.30
2023-07-26T09:49:32.643Z,0.60
2023-07-26T09:54:35.109Z,0.30
2023-07-26T09:57:04.976Z,0.50
2023-07-26T09:59:35.032Z,0.20
2023-07-26T10:02:06.148Z,0.28
2023-07-26T10:04:43.479Z,0.40
2023-07-26T10:07:14.375Z,0.30
2023-07-26T10:09:44.728Z,0.50
2023-07-26T10:12:12.581Z,0.30
2023-07-26T10:14:40.281Z,0.32
2023-07-26T10:17:08.000Z,0.28
2023-07-26T10:19:38.008Z,0.20
2023-07-26T10:22:06.335Z,0.30
2023-07-26T10:24:37.297Z,0.30
2023-07-26T10:27:05.347Z,0.28
2023-07-26T10:29:32.353Z,0.40
2023-07-26T10:32:05.788Z,0.35
2023-07-26T10:34:32.587Z,0.45
2023-07-26T10:36:59.406Z,0.40
2023-07-26T10:39:35.315Z,0.38
2023-07-26T10:42:03.567Z,0.52
2023-07-26T10:44:30.810Z,0.32
2023-07-26T10:47:07.181Z,0.40
2023-07-26T10:49:34.895Z,0.30
2023-07-26T10:52:03.986Z,0.40
2023-07-26T10:54:36.691Z,0.38
2023-07-26T10:57:33.127Z,0.60
2023-07-26T11:00:19.165Z,0.28
2023-07-26T11:02:50.714Z,0.22
2023-07-26T11:05:18.532Z,0.30
2023-07-26T11:08:00.075Z,0.30
2023-07-26T11:10:31.656Z,0.40
2023-07-26T11:13:14.880Z,0.50
2023-07-26T11:16:12.261Z,0.35
2023-07-26T11:18:41.129Z,0.45
2023-07-26T11:21:07.856Z,0.55
2023-07-26T11:23:34.600Z,0.35
2023-07-26T11:26:02.283Z,0.40
2023-07-26T11:28:33.008Z,0.50
2023-07-26T11:30:59.998Z,0.40
2023-07-26T11:33:30.928Z,0.30
2023-07-26T11:35:58.243Z,0.40
2023-07-26T11:38:25.008Z,0.40
2023-07-26T11:40:54.085Z,0.30
2023-07-26T11:43:22.186Z,0.60
2023-07-26T11:45:49.171Z,0.30
2023-07-26T11:48:16.674Z,0.60
2023-07-26T11:50:43.581Z,0.40
2023-07-26T11:53:13.525Z,0.45
2023-07-26T11:55:42.290Z,0.43
2023-07-26T11:58:11.998Z,0.50
2023-07-26T12:00:47.470Z,0.30
2023-07-26T12:03:15.740Z,0.43
2023-07-26T12:05:47.456Z,0.50
2023-07-26T12:08:14.059Z,0.40
2023-07-26T12:10:42.818Z,0.38
2023-07-26T12:13:19.861Z,0.50
2023-07-26T12:15:57.153Z,0.40
2023-07-26T12:18:25.089Z,0.40
2023-07-26T12:21:12.898Z,0.45
2023-07-26T12:23:54.682Z,0.52
2023-07-26T12:28:49.289Z,0.50
2023-07-26T12:31:36.308Z,0.40
2023-07-26T12:34:08.226Z,0.60
2023-07-26T12:36:37.815Z,0.40
2023-07-26T12:39:08.543Z,0.40
2023-07-26T12:41:36.541Z,0.40
2023-07-26T12:44:06.416Z,0.50
2023-07-26T12:47:01.143Z,0.35
2023-07-26T12:49:23.779Z,0.30
2023-07-26T12:51:50.678Z,0.40
2023-07-26T12:54:18.366Z,0.40
2023-07-26T12:56:45.010Z,0.60
2023-07-26T12:59:11.646Z,0.40
2023-07-26T13:01:39.526Z,0.40
2023-07-26T13:04:08.029Z,0.40
2023-07-26T13:06:36.787Z,0.40
2023-07-26T13:09:04.292Z,0.38
2023-07-26T13:11:30.934Z,0.43
2023-07-26T13:13:57.943Z,0.30
2023-07-26T13:16:24.686Z,0.35
2023-07-26T13:18:51.373Z,0.75
2023-07-26T13:21:17.951Z,0.50
2023-07-26T13:23:44.510Z,0.70
2023-07-26T13:26:11.074Z,0.40
2023-07-26T13:28:37.869Z,0.32
2023-07-26T13:31:04.606Z,0.40
2023-07-26T13:33:42.390Z,0.30
2023-07-26T13:36:26.866Z,0.40
2023-07-26T13:38:53.625Z,0.40
2023-07-26T13:41:20.692Z,0.57
2023-07-26T13:43:48.069Z,0.60
2023-07-26T13:48:44.500Z,0.40
2023-07-26T13:51:11.062Z,0.40
2023-07-26T13:53:37.635Z,0.38
2023-07-26T13:56:04.205Z,0.38
2023-07-26T13:58:31.140Z,0.20
2023-07-26T14:00:57.823Z,0.30
2023-07-26T14:03:24.415Z,0.40
2023-07-26T14:05:51.050Z,0.40
2023-07-26T14:08:17.620Z,0.35
2023-07-26T14:10:44.200Z,0.25
2023-07-26T14:13:12.117Z,0.30
2023-07-26T14:15:38.811Z,0.40
2023-07-26T14:18:05.528Z,0.40
2023-07-26T14:20:36.752Z,0.50
2023-07-26T14:23:03.544Z,0.32
2023-07-26T14:25:30.107Z,0.50
2023-07-26T14:27:57.015Z,0.40
2023-07-26T14:30:23.571Z,0.30
2023-07-26T14:32:50.207Z,0.35
2023-07-26T14:35:16.840Z,0.20
2023-07-26T14:37:43.363Z,0.45
2023-07-26T14:40:10.325Z,0.52
2023-07-26T14:42:36.870Z,0.57
2023-07-26T14:45:03.542Z,0.50
2023-07-26T14:47:30.100Z,0.43
2023-07-26T14:50:03.990Z,0.50
2023-07-26T14:52:31.999Z,0.52
2023-07-26T14:54:58.574Z,0.60
2023-07-26T14:57:25.369Z,0.50
2023-07-26T14:59:52.011Z,0.70
2023-07-26T15:02:21.392Z,0.38
2023-07-26T15:04:48.190Z,0.45
2023-07-26T15:07:15.150Z,0.57
2023-07-26T15:09:41.766Z,0.50
2023-07-26T15:12:08.582Z,0.40
2023-07-26T15:14:35.664Z,0.50
2023-07-26T15:17:02.663Z,0.60
2023-07-26T15:19:29.201Z,0.30
2023-07-26T15:21:55.769Z,0.70
2023-07-26T15:24:22.351Z,0.47
2023-07-26T15:26:48.960Z,0.38
2023-07-26T15:29:15.478Z,0.30
2023-07-26T15:31:42.016Z,0.40
2023-07-26T15:34:08.688Z,0.60
2023-07-26T15:36:35.311Z,0.20
2023-07-26T15:39:01.873Z,0.43
2023-07-26T15:41:35.131Z,0.20
2023-07-26T15:46:39.395Z,0.45
2023-07-26T15:49:08.990Z,0.40
2023-07-26T15:51:35.753Z,0.32
2023-07-26T15:54:02.358Z,0.32
2023-07-26T15:56:29.924Z,0.35
2023-07-26T16:01:25.227Z,0.30
2023-07-26T16:03:53.870Z,0.43
2023-07-26T16:06:20.752Z,0.40
2023-07-26T16:11:18.327Z,0.35
2023-07-26T16:13:45.224Z,0.43
2023-07-26T16:19:12.634Z,0.30
2023-07-26T16:23:57.600Z,0.10
2023-07-26T16:26:24.152Z,0.30
2023-07-26T16:28:50.668Z,0.40
2023-07-26T16:31:18.390Z,0.22
2023-07-26T16:33:45.116Z,0.40
2023-07-26T16:36:11.664Z,0.30
2023-07-26T16:38:39.191Z,0.30
2023-07-26T16:43:32.218Z,0.40
2023-07-26T16:45:58.874Z,0.50
2023-07-26T16:48:25.612Z,0.30
2023-07-26T16:50:52.143Z,0.60
2023-07-26T16:53:18.706Z,0.30
2023-07-26T16:55:45.224Z,0.40
2023-07-26T16:58:11.785Z,0.30
2023-07-26T17:00:39.977Z,0.35
2023-07-26T17:03:07.367Z,1.10
2023-07-26T17:05:35.777Z,10.30
2023-07-26T17:08:03.550Z,10.75
2023-07-26T17:10:30.126Z,28.00
2023-07-26T17:12:56.764Z,10.95
2023-07-26T17:15:23.334Z,10.82
2023-07-26T17:17:49.920Z,10.88
2023-07-26T17:20:16.513Z,8.00
2023-07-26T17:22:43.041Z,7.50
2023-07-26T17:25:09.699Z,6.32
2023-07-26T17:27:36.439Z,6.38
2023-07-26T17:30:03.362Z,6.05
2023-07-26T17:32:29.969Z,5.60
2023-07-26T17:34:56.519Z,5.97
2023-07-26T17:37:23.500Z,4.47
2023-07-26T17:39:52.341Z,3.58
2023-07-26T17:42:19.060Z,4.13
2023-07-26T17:44:45.577Z,3.83
2023-07-26T17:47:12.151Z,3.17
2023-07-26T17:49:38.672Z,3.15
2023-07-26T17:52:05.613Z,3.40
2023-07-26T17:54:36.409Z,2.70
2023-07-26T17:57:03.462Z,2.55
2023-07-26T17:59:32.396Z,2.47
2023-07-26T18:01:59.085Z,2.17
2023-07-26T18:04:25.687Z,2.33
2023-07-26T18:06:52.215Z,1.65
2023-07-26T18:09:18.756Z,1.85
2023-07-26T18:11:45.307Z,2.05
2023-07-26T18:14:11.947Z,1.88
2023-07-26T18:16:39.160Z,1.52
2023-07-26T18:19:05.916Z,1.67
2023-07-26T18:21:33.422Z,1.70
2023-07-26T18:26:27.860Z,1.63
2023-07-26T18:28:54.398Z,1.20
2023-07-26T18:31:21.065Z,1.20
2023-07-26T18:33:48.231Z,1.45
2023-07-26T18:36:15.068Z,1.30
2023-07-26T18:38:41.762Z,0.90
2023-07-26T18:41:08.911Z,1.10
2023-07-26T18:43:35.457Z,1.13
2023-07-26T18:46:01.990Z,0.80
2023-07-26T18:48:28.569Z,1.10
2023-07-26T18:50:55.087Z,1.23
2023-07-26T18:53:21.841Z,1.02
2023-07-26T18:55:51.014Z,0.70
2023-07-26T18:58:18.828Z,1.15
2023-07-26T19:00:45.857Z,0.80
2023-07-26T19:03:12.597Z,0.80
2023-07-26T19:05:40.359Z,0.95
2023-07-26T19:08:07.935Z,0.85
2023-07-26T19:10:42.149Z,1.27
2023-07-26T19:13:10.896Z,0.80
2023-07-26T19:15:37.465Z,0.77
2023-07-26T19:18:04.235Z,1.00
2023-07-26T19:20:31.116Z,0.90
2023-07-26T19:23:01.543Z,0.70
2023-07-26T19:25:30.206Z,0.77
2023-07-26T19:27:56.726Z,0.77
2023-07-26T19:30:23.608Z,0.60
2023-07-26T19:32:50.181Z,0.52
2023-07-26T19:35:16.762Z,0.70
2023-07-26T19:37:43.797Z,0.70
2023-07-26T19:40:10.877Z,0.80
2023-07-26T19:42:37.536Z,0.50
2023-07-26T19:45:04.804Z,0.60
2023-07-26T19:47:31.560Z,0.50
2023-07-26T19:49:58.086Z,0.40
2023-07-26T19:52:24.628Z,0.55
2023-07-26T19:54:51.149Z,0.68
2023-07-26T19:57:17.675Z,0.60
2023-07-26T19:59:44.292Z,0.65
2023-07-26T20:02:10.942Z,0.75
2023-07-26T20:04:37.752Z,0.40
2023-07-26T20:07:04.577Z,0.70
2023-07-26T20:09:32.089Z,0.50
2023-07-26T20:14:25.048Z,0.60
2023-07-26T20:16:51.646Z,0.22
2023-07-26T20:19:18.224Z,0.45
2023-07-26T20:21:44.810Z,0.43
2023-07-26T20:24:11.435Z,0.70
2023-07-26T20:26:37.984Z,0.38
2023-07-26T20:29:04.593Z,0.50
2023-07-26T20:31:31.153Z,0.30
2023-07-26T20:33:57.695Z,0.30
2023-07-26T20:36:24.204Z,0.43
2023-07-26T20:38:50.720Z,0.35
2023-07-26T20:41:17.256Z,0.30
2023-07-26T20:43:43.787Z,0.40
2023-07-26T20:46:10.360Z,0.60
2023-07-26T20:48:37.058Z,0.47
2023-07-26T20:51:04.292Z,0.30
2023-07-26T20:53:30.927Z,0.30
2023-07-26T20:55:58.336Z,0.47
2023-07-26T20:58:25.584Z,0.40
2023-07-26T21:00:53.015Z,0.47
2023-07-26T21:03:20.260Z,0.93
2023-07-26T21:05:47.856Z,0.60
2023-07-26T21:10:41.193Z,0.40
2023-07-26T21:13:07.711Z,0.45
2023-07-26T21:15:35.702Z,0.50
2023-07-26T21:18:02.320Z,0.60
2023-07-26T21:20:28.903Z,0.52
2023-07-26T21:22:55.422Z,0.40
2023-07-26T21:25:22.063Z,0.60
2023-07-26T21:27:48.603Z,0.30
2023-07-26T21:30:15.291Z,0.50
2023-07-26T21:32:41.825Z,0.47
2023-07-26T21:35:08.591Z,0.38
2023-07-26T21:37:35.312Z,0.40
2023-07-26T21:40:02.860Z,0.50
2023-07-26T21:44:55.948Z,0.60
2023-07-26T21:47:22.753Z,0.55
2023-07-26T21:49:49.465Z,0.45
2023-07-26T21:52:16.751Z,0.50
2023-07-26T21:54:44.270Z,0.50
2023-07-26T21:57:10.826Z,0.70
2023-07-26T21:59:37.414Z,0.52
2023-07-26T22:02:04.208Z,0.38
2023-07-26T22:04:30.903Z,0.82
2023-07-26T22:06:57.554Z,0.50
2023-07-26T22:09:24.772Z,0.50
2023-07-26T22:11:51.330Z,0.75
2023-07-26T22:14:17.873Z,0.43
2023-07-26T22:16:44.441Z,0.50
2023-07-26T22:19:11.048Z,0.60
2023-07-26T22:21:37.684Z,0.50
2023-07-26T22:24:04.476Z,0.60
2023-07-26T22:26:31.037Z,0.50
2023-07-26T22:28:57.611Z,0.50
2023-07-26T22:31:24.225Z,0.47
2023-07-26T22:33:50.996Z,0.52
2023-07-26T22:36:17.559Z,0.40
2023-07-26T22:38:44.132Z,0.63
2023-07-26T22:41:10.802Z,0.68
2023-07-26T22:43:37.360Z,0.55
2023-07-26T22:46:05.517Z,0.50
2023-07-26T22:48:32.149Z,0.50
2023-07-26T22:50:58.759Z,0.50
2023-07-26T22:53:25.323Z,0.50
2023-07-26T22:55:51.903Z,0.47
2023-07-26T22:58:18.451Z,0.40
2023-07-26T23:00:45.067Z,0.50
2023-07-26T23:03:11.771Z,0.40
2023-07-26T23:05:38.882Z,0.60
2023-07-26T23:08:05.645Z,0.50
2023-07-26T23:10:32.216Z,0.43
2023-07-26T23:12:58.844Z,0.50
2023-07-26T23:15:25.832Z,0.40
2023-07-26T23:17:53.394Z,0.52
2023-07-26T23:22:46.537Z,0.40
2023-07-26T23:25:13.114Z,0.60
2023-07-26T23:27:39.788Z,0.57
2023-07-26T23:30:07.666Z,0.50
2023-07-26T23:32:34.299Z,0.60
2023-07-26T23:35:00.911Z,0.50
2023-07-26T23:37:27.501Z,0.57
2023-07-26T23:39:54.097Z,0.43
2023-07-26T23:42:20.686Z,0.50
2023-07-26T23:44:47.335Z,0.30
2023-07-26T23:47:13.874Z,0.60
2023-07-26T23:49:40.445Z,0.40
2023-07-26T23:52:07.442Z,0.40
2023-07-26T23:54:33.975Z,0.38
2023-07-26T23:57:00.531Z,0.60
2023-07-26T23:59:27.115Z,0.50
